Time;durP1;ratioP1;P1;durP2;ratioP2;P2;SDS_P1;SDS_P2;PMS_P1;PMS_P2;Temp;Humidity;BMP_temperature;BMP_pressure;BME280_temperature;BME280_humidity;BME280_pressure;Samples;Min_cycle;Max_cycle;Signal;HPM_P1;HPM_P2
2022/11/20 00:00:13;;;;;;;6.55;3.75;;;;;;;15.43;27.30;101897.59;5032518;28;20029;-55
2022/11/20 00:02:39;;;;;;;7.65;3.72;;;;;;;15.33;27.38;101903.44;5021712;28;20034;-55
2022/11/20 00:05:05;;;;;;;7.32;3.08;;;;;;;15.15;27.75;101903.25;5051115;28;20017;-53
2022/11/20 00:07:32;;;;;;;5.85;3.10;;;;;;;15.45;27.54;101900.91;5033786;28;20025;-48
2022/11/20 00:09:58;;;;;;;5.22;3.45;;;;;;;15.31;27.72;101892.03;5032388;28;20118;-51
2022/11/20 00:12:24;;;;;;;5.25;3.10;;;;;;;15.15;27.60;101900.56;5032903;28;20028;-51
2022/11/20 00:14:50;;;;;;;6.45;3.25;;;;;;;15.01;27.80;101907.84;5030163;28;20034;-50
2022/11/20 00:17:16;;;;;;;5.47;3.15;;;;;;;15.03;28.18;101909.28;5030958;28;20147;-52
2022/11/20 00:19:42;;;;;;;5.80;3.28;;;;;;;14.84;27.93;101915.53;5032259;28;20036;-52
2022/11/20 00:22:09;;;;;;;5.57;2.90;;;;;;;14.83;27.79;101915.75;5020309;28;20517;-52
2022/11/20 00:24:35;;;;;;;5.20;2.70;;;;;;;14.94;27.82;101913.25;5022250;28;20036;-50
2022/11/20 00:27:01;;;;;;;4.18;3.05;;;;;;;14.68;28.06;101918.66;5014736;28;20029;-51
2022/11/20 00:29:27;;;;;;;5.65;2.97;;;;;;;14.73;27.90;101908.91;5047755;28;20040;-52
2022/11/20 00:31:53;;;;;;;4.65;2.72;;;;;;;14.69;27.94;101912.22;5032357;28;20028;-52
2022/11/20 00:34:19;;;;;;;6.10;2.65;;;;;;;14.53;27.83;101902.69;5032011;28;20029;-49
2022/11/20 00:36:45;;;;;;;4.80;2.45;;;;;;;14.49;28.04;101909.50;5035286;28;20035;-52
2022/11/20 00:39:12;;;;;;;4.35;2.50;;;;;;;14.25;28.36;101916.28;5014409;28;20041;-54
2022/11/20 00:41:38;;;;;;;5.22;2.67;;;;;;;14.40;28.22;101911.56;5032525;28;20520;-53
2022/11/20 00:44:04;;;;;;;6.53;2.47;;;;;;;14.32;27.90;101913.59;5032133;28;20061;-54
2022/11/20 00:46:30;;;;;;;3.88;2.55;;;;;;;14.26;28.23;101901.78;5031601;28;20602;-52
2022/11/20 00:48:57;;;;;;;5.53;2.55;;;;;;;14.08;28.07;101909.63;5027938;28;20033;-52
2022/11/20 00:51:25;;;;;;;3.80;2.45;;;;;;;14.11;28.02;101920.00;5020124;28;20022;-51
2022/11/20 00:53:52;;;;;;;3.92;2.40;;;;;;;14.16;28.14;101912.97;5017659;28;20069;-51
2022/11/20 00:56:19;;;;;;;5.43;2.38;;;;;;;14.11;27.65;101907.34;5020556;28;20107;-52
2022/11/20 00:58:47;;;;;;;5.32;2.55;;;;;;;14.02;27.87;101910.44;5033725;28;20067;-52
2022/11/20 01:01:26;;;;;;;5.18;2.60;;;;;;;14.02;27.49;101919.34;5032058;28;20474;-52
2022/11/20 01:03:56;;;;;;;3.92;2.67;;;;;;;13.96;27.29;101918.28;5050768;28;20029;-50
2022/11/20 01:06:29;;;;;;;5.38;3.17;;;;;;;13.97;27.33;101914.56;5048780;28;20033;-50
2022/11/20 01:08:58;;;;;;;5.80;2.83;;;;;;;13.98;27.59;101907.31;5031991;28;20033;-48
2022/11/20 01:11:27;;;;;;;4.47;2.53;;;;;;;13.93;27.40;101920.53;5031328;28;20110;-49
2022/11/20 01:13:55;;;;;;;7.38;2.83;;;;;;;13.92;27.22;101922.41;5046944;28;20040;-52
2022/11/20 01:16:24;;;;;;;5.10;2.67;;;;;;;14.07;27.40;101924.13;5048210;28;20027;-51
2022/11/20 01:18:53;;;;;;;3.53;2.53;;;;;;;13.93;27.12;101923.22;5031968;28;20539;-49
2022/11/20 01:21:25;;;;;;;4.15;2.70;;;;;;;13.94;27.04;101925.75;5031112;28;20478;-52
2022/11/20 01:23:52;;;;;;;5.32;2.92;;;;;;;13.92;27.02;101924.25;5046407;28;20028;-52
2022/11/20 01:26:21;;;;;;;4.15;2.67;;;;;;;13.87;27.32;101924.84;5050131;28;20032;-49
2022/11/20 01:28:48;;;;;;;5.93;2.30;;;;;;;13.84;27.12;101935.22;5031719;28;20381;-52
2022/11/20 01:31:24;;;;;;;5.50;3.05;;;;;;;13.86;27.08;101936.66;5031583;28;20025;-52
2022/11/20 01:33:53;;;;;;;5.03;3.25;;;;;;;13.89;26.81;101941.66;5031979;28;20114;-51
2022/11/20 01:36:21;;;;;;;5.20;2.72;;;;;;;13.84;27.21;101936.03;5031213;28;20087;-52
2022/11/20 01:38:47;;;;;;;6.28;3.25;;;;;;;13.81;26.80;101946.38;5031588;28;20048;-50
2022/11/20 01:43:20;;;;;;;9.48;2.95;;;;;;;13.79;26.72;101949.28;5033609;28;20033;-51
2022/11/20 01:44:02;;;;;;;6.78;3.45;;;;;;;13.84;26.64;101941.44;5030515;28;20021;-49
2022/11/20 01:46:29;;;;;;;3.67;2.55;;;;;;;13.94;26.60;101946.44;5031473;28;20099;-51
2022/11/20 01:49:03;;;;;;;3.45;2.38;;;;;;;13.92;26.33;101946.63;5030619;28;20029;-52
2022/11/20 01:51:49;;;;;;;3.77;2.30;;;;;;;13.93;26.55;101960.91;5042803;28;20032;-53
2022/11/20 01:54:21;;;;;;;5.72;2.65;;;;;;;13.86;26.33;101952.81;5046236;28;20450;-53
2022/11/20 01:56:51;;;;;;;6.22;3.22;;;;;;;13.86;26.32;101952.81;5032705;28;20156;-51
2022/11/20 01:59:20;;;;;;;4.35;2.63;;;;;;;13.88;26.35;101950.78;5025521;28;20037;-52
2022/11/20 02:01:46;;;;;;;6.03;2.20;;;;;;;13.86;26.22;101960.88;5036985;28;20021;-53
2022/11/20 02:04:15;;;;;;;4.53;2.50;;;;;;;13.90;26.36;101964.00;5034933;28;20021;-52
2022/11/20 02:06:44;;;;;;;3.92;2.08;;;;;;;13.88;26.12;101961.53;5034969;28;20025;-53
2022/11/20 02:09:11;;;;;;;5.60;2.50;;;;;;;13.86;26.35;101960.06;5034579;28;20030;-53
2022/11/20 02:11:38;;;;;;;3.45;2.00;;;;;;;13.79;26.44;101960.03;5035033;28;20017;-53
2022/11/20 02:14:04;;;;;;;3.10;2.00;;;;;;;13.78;26.50;101963.75;5034877;28;20128;-52
2022/11/20 02:16:43;;;;;;;5.43;2.67;;;;;;;13.85;26.29;101953.03;5034691;28;20048;-53
2022/11/20 02:19:21;;;;;;;4.22;2.40;;;;;;;13.87;26.35;101956.31;5037987;28;20032;-53
2022/11/20 02:21:56;;;;;;;5.10;2.45;;;;;;;13.82;26.42;101959.63;5034895;28;20052;-52
2022/11/20 02:24:23;;;;;;;4.70;2.20;;;;;;;13.72;26.63;101951.09;5034608;28;20025;-53
2022/11/20 02:27:06;;;;;;;3.33;2.50;;;;;;;13.77;26.30;101956.72;5034887;28;20053;-52
2022/11/20 02:29:36;;;;;;;4.45;2.38;;;;;;;13.89;25.78;101963.19;5020281;28;20371;-52
2022/11/20 02:32:03;;;;;;;4.13;1.85;;;;;;;13.86;25.94;101960.06;5016577;28;20026;-52
2022/11/20 02:34:29;;;;;;;3.25;1.90;;;;;;;13.85;25.95;101964.59;5034288;28;20029;-52
2022/11/20 02:36:57;;;;;;;3.60;2.25;;;;;;;13.82;26.08;101967.69;5045834;28;20045;-52
2022/11/20 02:39:26;;;;;;;5.28;2.30;;;;;;;13.79;26.00;101968.09;5041458;28;20112;-52
2022/11/20 02:41:56;;;;;;;3.53;2.08;;;;;;;13.84;25.93;101962.13;5034303;28;20075;-52
2022/11/20 02:44:23;;;;;;;3.22;1.63;;;;;;;13.82;25.87;101969.56;5033954;28;20509;-51
2022/11/20 02:46:49;;;;;;;3.45;1.60;;;;;;;13.88;25.86;101975.00;5034364;28;20025;-52
2022/11/20 02:49:16;;;;;;;2.47;1.95;;;;;;;13.84;25.32;101973.72;5034255;28;20044;-52
2022/11/20 02:51:42;;;;;;;4.00;2.00;;;;;;;13.81;25.76;101973.28;5034359;28;20025;-52
2022/11/20 02:54:09;;;;;;;3.97;2.50;;;;;;;13.81;25.32;101976.78;5034512;28;20036;-51
2022/11/20 02:56:37;;;;;;;3.30;1.67;;;;;;;13.85;25.64;101978.06;5019461;28;20029;-53
2022/11/20 02:59:04;;;;;;;3.63;2.65;;;;;;;13.81;25.54;101982.19;5029530;28;20032;-52
2022/11/20 03:01:30;;;;;;;5.60;3.17;;;;;;;13.82;25.44;101991.91;5053275;28;20021;-51
2022/11/20 03:03:56;;;;;;;6.47;4.60;;;;;;;13.88;25.06;101988.44;5047573;28;20014;-52
2022/11/20 03:06:22;;;;;;;4.55;2.30;;;;;;;13.87;25.17;101986.75;5033886;28;20047;-53
2022/11/20 03:08:49;;;;;;;5.60;4.40;;;;;;;13.88;25.20;101991.13;5033953;28;20033;-53
2022/11/20 03:11:16;;;;;;;6.55;5.57;;;;;;;13.86;25.14;101992.34;5034482;28;20028;-53
2022/11/20 03:13:43;;;;;;;9.07;6.97;;;;;;;13.80;25.38;101985.91;5033319;28;20061;-53
2022/11/20 03:16:12;;;;;;;4.70;3.15;;;;;;;13.96;24.77;101988.25;5033427;28;20034;-52
2022/11/20 03:18:39;;;;;;;4.75;2.72;;;;;;;13.92;24.91;101984.31;5017199;28;20048;-53
2022/11/20 03:21:06;;;;;;;4.07;3.67;;;;;;;13.86;25.08;101987.78;5033465;28;20112;-53
2022/11/20 03:23:33;;;;;;;4.03;3.60;;;;;;;13.89;25.05;101994.66;5033526;28;20336;-53
2022/11/20 03:26:18;;;;;;;5.25;3.00;;;;;;;13.99;24.83;101992.41;5033369;28;20363;-52
2022/11/20 03:28:56;;;;;;;6.72;5.25;;;;;;;13.90;24.77;101996.31;5051822;28;20119;-52
2022/11/20 03:31:30;;;;;;;4.28;3.88;;;;;;;13.85;24.85;101988.00;5053251;28;20040;-52
2022/11/20 03:33:58;;;;;;;3.45;3.10;;;;;;;13.80;24.81;101995.84;5053264;28;20040;-53
2022/11/20 03:36:26;;;;;;;4.47;2.95;;;;;;;13.86;25.04;101995.88;5041047;28;20029;-52
2022/11/20 03:38:54;;;;;;;6.50;3.08;;;;;;;13.85;24.65;101991.53;5033387;28;20027;-50
2022/11/20 03:41:26;;;;;;;4.30;3.83;;;;;;;13.80;24.84;101998.53;5033291;28;20022;-51
2022/11/20 03:43:54;;;;;;;4.00;3.58;;;;;;;13.80;24.47;101996.66;5033917;28;20383;-52
2022/11/20 03:46:21;;;;;;;2.97;2.65;;;;;;;13.92;24.09;101997.75;5033084;28;20044;-51
2022/11/20 03:48:48;;;;;;;3.40;2.47;;;;;;;13.93;24.27;102009.34;5033244;28;20029;-52
2022/11/20 03:51:22;;;;;;;3.80;2.80;;;;;;;13.84;24.78;102006.00;5032941;28;20502;-50
2022/11/20 03:53:50;;;;;;;6.05;2.65;;;;;;;13.88;24.79;102009.13;5032915;28;20034;-48
2022/11/20 03:56:19;;;;;;;4.25;2.85;;;;;;;13.85;24.83;102013.06;5033163;28;20109;-51
2022/11/20 03:58:45;;;;;;;3.08;2.42;;;;;;;13.85;24.65;102014.91;5032976;28;20028;-51
2022/11/20 04:01:14;;;;;;;3.58;2.00;;;;;;;13.79;24.93;102024.63;5033352;28;20027;-50
2022/11/20 04:03:42;;;;;;;3.33;2.63;;;;;;;13.78;24.63;102028.34;5032917;28;20049;-51
2022/11/20 04:06:09;;;;;;;3.45;2.45;;;;;;;13.81;24.96;102027.09;5032498;28;20032;-50
2022/11/20 04:08:36;;;;;;;2.72;2.17;;;;;;;13.80;24.84;102031.66;5032812;28;20032;-52
2022/11/20 04:11:19;;;;;;;3.85;2.45;;;;;;;13.80;25.08;102028.97;5032816;28;20025;-52
2022/11/20 04:13:54;;;;;;;2.55;1.88;;;;;;;13.92;24.67;102031.91;5051320;28;20389;-52
2022/11/20 04:16:22;;;;;;;2.28;1.95;;;;;;;13.81;25.16;102033.31;5052407;28;20049;-52
2022/11/20 04:19:01;;;;;;;3.55;2.45;;;;;;;13.66;25.07;102029.94;5051428;28;20029;-51
2022/11/20 04:21:28;;;;;;;3.63;2.42;;;;;;;13.61;24.81;102035.06;5052470;28;20025;-53
2022/11/20 04:23:55;;;;;;;2.95;1.80;;;;;;;13.75;25.28;102050.25;5047227;28;20028;-53
2022/11/20 04:26:23;;;;;;;4.28;1.98;;;;;;;13.89;25.24;102052.00;5039646;28;20086;-52
2022/11/20 04:28:50;;;;;;;3.42;1.83;;;;;;;13.82;25.25;102051.13;5052531;28;20033;-49
2022/11/20 04:31:22;;;;;;;3.92;1.92;;;;;;;13.68;25.77;102054.75;5037734;28;20025;-51
2022/11/20 04:33:49;;;;;;;4.00;2.20;;;;;;;13.74;26.88;102059.34;5032150;28;20083;-52
2022/11/20 04:36:18;;;;;;;5.78;2.80;;;;;;;13.89;28.40;102057.38;5032815;28;20033;-52
2022/11/20 04:38:45;;;;;;;4.57;3.10;;;;;;;13.72;28.97;102061.44;5032624;28;20029;-50
2022/11/20 04:41:19;;;;;;;5.55;3.03;;;;;;;13.56;29.81;102056.34;5032301;28;20104;-52
2022/11/20 04:43:58;;;;;;;5.10;2.87;;;;;;;13.48;30.52;102063.50;5031611;28;20100;-50
2022/11/20 04:46:26;;;;;;;6.00;3.28;;;;;;;13.39;30.94;102066.56;5028040;28;20271;-50
2022/11/20 04:48:53;;;;;;;5.43;3.55;;;;;;;13.16;31.78;102069.44;5032456;28;20075;-53
2022/11/20 04:51:19;;;;;;;5.13;3.20;;;;;;;13.27;31.77;102073.47;5032261;28;20359;-52
2022/11/20 04:53:45;;;;;;;4.63;3.15;;;;;;;12.93;32.65;102073.13;5032659;28;20036;-52
2022/11/20 04:56:13;;;;;;;5.80;3.58;;;;;;;12.83;32.68;102080.69;5031811;28;20577;-52
2022/11/20 04:58:39;;;;;;;6.15;3.85;;;;;;;12.51;33.82;102087.34;5032224;28;20048;-53
2022/11/20 05:01:17;;;;;;;6.20;3.50;;;;;;;12.31;34.71;102081.72;5032298;28;20092;-53
2022/11/20 05:03:44;;;;;;;5.50;3.13;;;;;;;11.95;35.36;102095.06;5012217;28;20047;-53
2022/11/20 05:06:13;;;;;;;5.95;3.80;;;;;;;12.04;35.32;102099.31;5044589;28;20118;-53
2022/11/20 05:08:40;;;;;;;6.57;4.30;;;;;;;12.21;35.62;102109.88;5051845;28;20033;-51
2022/11/20 05:11:12;;;;;;;7.43;4.70;;;;;;;11.60;37.48;102107.28;5048554;28;20048;-51
2022/11/20 05:13:39;;;;;;;8.23;4.38;;;;;;;11.76;37.19;102112.50;5047955;28;20091;-52
2022/11/20 05:16:08;;;;;;;4.65;3.50;;;;;;;11.60;37.57;102123.38;5051852;28;20021;-52
2022/11/20 05:18:35;;;;;;;5.85;3.88;;;;;;;11.76;37.40;102119.69;5048485;28;20041;-53
2022/11/20 05:21:02;;;;;;;6.93;4.43;;;;;;;11.51;37.93;102124.47;5048904;28;20501;-52
2022/11/20 05:23:30;;;;;;;7.60;4.13;;;;;;;11.25;38.58;102120.31;5051509;28;20086;-51
2022/11/20 05:25:57;;;;;;;6.85;4.35;;;;;;;10.86;39.75;102133.81;5018056;28;20036;-51
2022/11/20 05:28:24;;;;;;;6.30;3.88;;;;;;;10.94;39.53;102128.41;5051101;28;20017;-53
2022/11/20 05:30:51;;;;;;;5.85;3.47;;;;;;;10.81;40.06;102128.13;5037833;28;20506;-52
2022/11/20 05:33:18;;;;;;;5.80;3.72;;;;;;;10.82;39.83;102136.00;5055179;28;20025;-50
2022/11/20 05:35:44;;;;;;;5.80;4.05;;;;;;;10.49;40.41;102124.63;5052147;28;20485;-53
2022/11/20 05:38:10;;;;;;;5.22;3.72;;;;;;;10.53;40.48;102136.63;5055532;28;20028;-52
2022/11/20 05:40:37;;;;;;;6.55;4.20;;;;;;;10.61;40.38;102134.94;5052931;28;20052;-52
2022/11/20 05:43:03;;;;;;;5.68;3.90;;;;;;;10.50;40.71;102128.13;5040376;28;20036;-51
2022/11/20 05:45:29;;;;;;;8.32;4.20;;;;;;;10.52;40.80;102131.47;5044222;28;20030;-52
2022/11/20 05:47:59;;;;;;;6.72;3.92;;;;;;;10.26;41.26;102137.06;5035405;28;20033;-52
2022/11/20 05:50:27;;;;;;;5.75;3.40;;;;;;;10.38;41.44;102132.19;5034959;28;20120;-52
2022/11/20 05:52:54;;;;;;;7.32;4.10;;;;;;;10.27;41.74;102128.91;5034749;28;20459;-52
2022/11/20 05:55:20;;;;;;;5.93;4.50;;;;;;;10.21;42.31;102131.38;5023270;28;20530;-52
2022/11/20 05:57:46;;;;;;;5.72;4.55;;;;;;;10.25;42.95;102141.59;5014968;28;20036;-53
2022/11/20 06:00:13;;;;;;;7.88;4.63;;;;;;;10.07;44.02;102140.13;5015313;28;20029;-49
2022/11/20 06:02:39;;;;;;;8.43;4.35;;;;;;;10.04;43.81;102146.63;5014683;28;20026;-51
2022/11/20 06:05:06;;;;;;;6.40;4.60;;;;;;;10.04;44.63;102151.97;5015161;28;20025;-51
2022/11/20 06:07:32;;;;;;;7.20;4.78;;;;;;;10.01;45.08;102153.16;5015055;28;20062;-52
2022/11/20 06:09:58;;;;;;;8.55;5.43;;;;;;;9.90;45.74;102155.38;5015169;28;20025;-50
2022/11/20 06:12:24;;;;;;;6.15;4.80;;;;;;;9.98;45.66;102155.34;5014762;28;20504;-51
2022/11/20 06:14:50;;;;;;;10.32;5.35;;;;;;;9.58;46.53;102162.41;5014324;28;20030;-51
2022/11/20 06:17:17;;;;;;;9.68;5.28;;;;;;;9.28;47.28;102160.38;5014527;28;20034;-52
2022/11/20 06:19:43;;;;;;;8.05;5.63;;;;;;;8.81;48.18;102169.78;5014772;28;20041;-53
2022/11/20 06:22:09;;;;;;;7.70;5.05;;;;;;;8.84;48.00;102168.63;5015004;28;20095;-51
2022/11/20 06:24:35;;;;;;;8.40;4.65;;;;;;;8.89;47.83;102166.31;5014722;28;20034;-52
2022/11/20 06:27:02;;;;;;;7.63;5.07;;;;;;;8.96;47.37;102170.00;5014677;28;20022;-52
2022/11/20 06:29:28;;;;;;;9.32;4.90;;;;;;;8.97;47.23;102164.47;5014490;28;20053;-52
2022/11/20 06:31:54;;;;;;;7.32;4.50;;;;;;;9.17;46.89;102165.03;5014585;28;20040;-52
2022/11/20 06:34:21;;;;;;;7.22;5.07;;;;;;;9.08;46.69;102171.34;5015639;28;20026;-52
2022/11/20 06:36:47;;;;;;;6.95;4.55;;;;;;;9.03;46.65;102171.00;5033427;28;20029;-52
2022/11/20 06:39:13;;;;;;;8.50;5.53;;;;;;;9.12;47.07;102174.53;5033107;28;20076;-51
2022/11/20 06:41:39;;;;;;;8.50;4.63;;;;;;;9.10;47.46;102165.84;5033705;28;20474;-52
2022/11/20 06:44:05;;;;;;;7.18;5.05;;;;;;;8.81;48.13;102169.78;5033684;28;20029;-52
2022/11/20 06:46:32;;;;;;;9.30;5.30;;;;;;;8.76;48.64;102166.75;5033734;28;20025;-50
2022/11/20 06:48:58;;;;;;;7.95;5.53;;;;;;;8.83;49.30;102165.13;5033935;28;20025;-51
2022/11/20 06:51:24;;;;;;;6.78;5.18;;;;;;;8.67;49.96;102165.06;5014253;28;20025;-53
2022/11/20 06:53:50;;;;;;;10.82;5.88;;;;;;;8.76;49.94;102160.56;5013616;28;20041;-52
2022/11/20 06:56:17;;;;;;;8.48;5.55;;;;;;;8.59;50.58;102176.53;5014332;28;20026;-48
2022/11/20 06:58:43;;;;;;;9.98;6.30;;;;;;;8.50;50.34;102172.16;5013900;28;20026;-50
2022/11/20 07:01:12;;;;;;;10.88;5.93;;;;;;;8.56;50.20;102178.69;5014332;28;20037;-51
2022/11/20 07:03:39;;;;;;;11.13;5.20;;;;;;;8.45;50.46;102182.47;5033516;28;20031;-51
2022/11/20 07:06:06;;;;;;;7.60;5.50;;;;;;;8.57;50.15;102183.88;5033490;28;20044;-49
2022/11/20 07:08:32;;;;;;;11.40;5.90;;;;;;;8.59;50.33;102181.88;5033644;28;20037;-52
2022/11/20 07:11:01;;;;;;;10.40;5.75;;;;;;;8.35;50.67;102187.06;5033643;28;20025;-52
2022/11/20 07:13:28;;;;;;;7.85;5.25;;;;;;;8.53;49.71;102184.34;5033518;28;20033;-51
2022/11/20 07:15:55;;;;;;;8.65;5.47;;;;;;;8.42;49.74;102193.47;5033590;28;20029;-52
2022/11/20 07:18:21;;;;;;;7.82;5.30;;;;;;;8.36;50.19;102186.94;5033298;28;20045;-50
2022/11/20 07:20:47;;;;;;;9.43;5.70;;;;;;;8.64;49.35;102195.56;5033429;28;20029;-50
2022/11/20 07:23:14;;;;;;;8.98;5.07;;;;;;;8.49;49.68;102193.66;5033612;28;20025;-49
2022/11/20 07:25:40;;;;;;;8.35;5.32;;;;;;;8.61;49.29;102187.06;5033082;28;20447;-50
2022/11/20 07:28:06;;;;;;;10.00;5.95;;;;;;;8.46;49.64;102189.47;5033236;28;20034;-52
2022/11/20 07:30:32;;;;;;;8.40;5.45;;;;;;;8.52;49.59;102194.19;5033285;28;20032;-49
2022/11/20 07:32:59;;;;;;;9.77;5.50;;;;;;;8.56;49.52;102192.03;5033170;28;20025;-50
2022/11/20 07:35:25;;;;;;;8.75;5.30;;;;;;;8.28;50.26;102194.03;5032737;28;20029;-52
2022/11/20 07:37:51;;;;;;;9.55;5.85;;;;;;;8.34;50.72;102196.06;5033206;28;20104;-48
2022/11/20 07:40:18;;;;;;;10.18;5.53;;;;;;;8.18;51.17;102197.63;5033015;28;20025;-49
2022/11/20 07:42:52;;;;;;;9.95;5.75;;;;;;;8.26;50.94;102194.16;5032990;28;20167;-52
2022/11/20 07:45:20;;;;;;;9.13;5.90;;;;;;;8.31;51.06;102191.03;5032642;28;20029;-50
2022/11/20 07:47:46;;;;;;;8.13;5.57;;;;;;;8.25;51.39;102187.16;5032918;28;20477;-49
2022/11/20 07:50:13;;;;;;;7.25;5.30;;;;;;;7.97;51.91;102183.81;5022902;28;20530;-50
2022/11/20 07:52:40;;;;;;;8.32;5.15;;;;;;;7.97;52.02;102183.81;5013001;28;20576;-52
2022/11/20 07:55:07;;;;;;;9.63;5.35;;;;;;;8.05;52.05;102180.34;5012548;28;20026;-50
2022/11/20 07:57:33;;;;;;;7.82;5.75;;;;;;;8.18;51.99;102186.97;5013137;28;20029;-52
2022/11/20 08:00:00;;;;;;;10.18;5.45;;;;;;;8.23;51.93;102189.16;5012907;28;20046;-49
2022/11/20 08:02:26;;;;;;;8.73;5.40;;;;;;;7.83;53.14;102181.72;5012886;28;20128;-49
2022/11/20 08:04:52;;;;;;;8.05;5.43;;;;;;;7.78;53.15;102176.03;5012698;28;20036;-53
2022/11/20 08:07:18;;;;;;;8.80;5.60;;;;;;;7.85;52.78;102172.56;5012712;28;20414;-52
2022/11/20 08:09:44;;;;;;;9.02;5.15;;;;;;;7.67;53.52;102179.78;5012783;28;20042;-49
2022/11/20 08:15:05;;;;;;;7.32;5.47;;;;;;;7.76;53.61;102183.31;5013067;28;20088;-52
2022/11/20 08:17:31;;;;;;;8.45;5.50;;;;;;;7.57;54.48;102185.19;5012513;28;20042;-48
2022/11/20 08:19:58;;;;;;;8.07;5.47;;;;;;;7.55;54.60;102192.50;5012456;28;20033;-52
2022/11/20 08:22:25;;;;;;;8.73;5.55;;;;;;;7.53;54.75;102182.97;5012396;28;20033;-50
2022/11/20 08:24:51;;;;;;;8.93;5.60;;;;;;;7.54;54.54;102185.47;5012255;28;20489;-48
2022/11/20 08:27:17;;;;;;;10.60;5.53;;;;;;;7.46;54.70;102185.41;4995122;28;20033;-49
2022/11/20 08:29:43;;;;;;;9.18;6.15;;;;;;;7.40;54.73;102188.69;5012308;28;20034;-52
2022/11/20 08:32:09;;;;;;;10.13;5.75;;;;;;;7.55;54.80;102194.28;5012389;28;20033;-51
2022/11/20 08:34:36;;;;;;;7.68;5.68;;;;;;;7.68;54.63;102190.25;5011861;28;20386;-48
2022/11/20 08:37:02;;;;;;;8.48;5.82;;;;;;;7.41;55.49;102185.03;5012413;28;20030;-50
2022/11/20 08:39:29;;;;;;;10.43;6.30;;;;;;;7.48;55.59;102187.91;5027218;28;20106;-51
2022/11/20 08:41:55;;;;;;;8.10;5.82;;;;;;;7.36;55.83;102181.97;5031995;28;20026;-49
2022/11/20 08:44:21;;;;;;;10.95;6.10;;;;;;;7.30;56.11;102177.25;5031189;28;20017;-49
2022/11/20 08:46:47;;;;;;;10.63;6.35;;;;;;;7.18;56.86;102173.16;5031407;28;20428;-50
2022/11/20 08:49:14;;;;;;;8.50;5.95;;;;;;;7.24;56.70;102169.88;5029932;28;20104;-49
2022/11/20 08:51:41;;;;;;;10.45;5.97;;;;;;;7.21;56.96;102167.50;5016654;28;20026;-50
2022/11/20 08:54:08;;;;;;;9.65;5.85;;;;;;;6.96;57.69;102175.25;5030921;28;20076;-52
2022/11/20 08:56:34;;;;;;;9.10;5.65;;;;;;;6.95;58.03;102168.25;5031426;28;20025;-50
2022/11/20 08:59:01;;;;;;;9.68;6.03;;;;;;;6.95;58.20;102170.91;5031722;28;20029;-51
2022/11/20 09:01:29;;;;;;;9.05;5.57;;;;;;;6.81;58.63;102180.22;5031849;28;20108;-52
2022/11/20 09:03:59;;;;;;;9.85;5.72;;;;;;;6.72;59.05;102169.63;5031353;28;20087;-49
2022/11/20 09:06:25;;;;;;;6.32;5.18;;;;;;;6.68;59.08;102166.44;5030985;28;20037;-52
2022/11/20 09:08:53;;;;;;;10.57;5.97;;;;;;;6.82;58.66;102170.41;5031463;28;20049;-50
2022/11/20 09:11:19;;;;;;;10.27;6.13;;;;;;;6.91;58.47;102168.69;5031624;28;20497;-50
2022/11/20 09:13:45;;;;;;;10.48;5.70;;;;;;;6.87;58.31;102171.66;5031192;28;20037;-52
2022/11/20 09:16:11;;;;;;;8.90;5.70;;;;;;;6.88;58.15;102175.16;5031561;28;20029;-52
2022/11/20 09:18:38;;;;;;;8.90;6.28;;;;;;;6.90;57.74;102170.53;5031103;28;20497;-49
2022/11/20 09:21:12;;;;;;;10.20;6.10;;;;;;;6.90;57.67;102173.19;5030883;28;20044;-51
2022/11/20 09:23:39;;;;;;;10.85;6.57;;;;;;;7.01;57.37;102178.31;5031410;28;20037;-52
2022/11/20 09:26:06;;;;;;;11.13;5.90;;;;;;;6.91;57.60;102169.53;5031351;28;20022;-51
2022/11/20 09:28:33;;;;;;;9.88;6.15;;;;;;;7.02;57.40;102166.66;5031249;28;20036;-52
2022/11/20 09:30:59;;;;;;;8.48;6.05;;;;;;;7.05;57.24;102178.81;5031586;28;20441;-50
2022/11/20 09:33:26;;;;;;;9.95;6.28;;;;;;;7.01;57.65;102174.81;5031156;28;20566;-49
2022/11/20 09:35:52;;;;;;;11.13;6.22;;;;;;;7.02;57.58;102179.13;5031541;28;20033;-50
2022/11/20 09:38:19;;;;;;;8.52;5.82;;;;;;;6.96;57.90;102180.56;5031186;28;20021;-52
2022/11/20 09:40:53;;;;;;;8.82;6.07;;;;;;;6.89;58.32;102187.50;5030805;28;20033;-49
2022/11/20 09:43:49;;;;;;;8.43;6.18;;;;;;;7.06;58.11;102183.19;5031028;28;20025;-51
2022/11/20 09:46:21;;;;;;;13.05;7.15;;;;;;;6.83;58.77;102188.09;5029494;28;20049;-52
2022/11/20 09:49:02;;;;;;;9.45;5.50;;;;;;;6.87;58.73;102190.28;5031122;28;20033;-50
2022/11/20 09:51:41;;;;;;;14.52;5.70;;;;;;;6.88;59.13;102188.44;5011335;28;20437;-51
2022/11/20 09:54:17;;;;;;;11.27;6.85;;;;;;;6.94;58.67;102187.00;5011188;28;20506;-52
2022/11/20 09:56:49;;;;;;;7.32;5.35;;;;;;;6.85;58.48;102191.44;5011615;28;20030;-51
2022/11/20 09:59:44;;;;;;;9.88;5.97;;;;;;;6.80;58.68;102193.69;5011382;28;20018;-52
2022/11/20 10:02:35;;;;;;;10.40;6.03;;;;;;;6.92;58.68;102195.16;5012171;28;20096;-52
2022/11/20 10:05:20;;;;;;;10.82;6.13;;;;;;;6.96;58.39;102193.06;5027014;28;20488;-51
2022/11/20 10:08:00;;;;;;;10.48;6.15;;;;;;;6.94;58.47;102192.34;5031272;28;20017;-52
2022/11/20 10:10:45;;;;;;;13.30;6.15;;;;;;;7.05;58.59;102189.47;5030726;28;20074;-51
2022/11/20 10:13:41;;;;;;;10.60;5.18;;;;;;;6.96;59.14;102193.88;5030723;28;20409;-52
2022/11/20 10:16:26;;;;;;;;;;;;;;;6.80;59.46;102197.19;5031566;28;20030;-53
2022/11/20 10:19:07;;;;;;;10.13;6.85;;;;;;;6.69;59.73;102197.38;5035119;28;19947;-51
2022/11/20 10:22:03;;;;;;;10.32;6.57;;;;;;;6.81;60.00;102192.69;5034294;28;20053;-52
2022/11/20 10:24:47;;;;;;;;;;;;;;;6.73;60.12;102195.28;5034574;28;20115;-52
2022/11/20 10:27:37;;;;;;;9.90;6.60;;;;;;;6.32;61.33;102206.19;5034364;28;19920;-52
2022/11/20 10:30:15;;;;;;;11.10;6.32;;;;;;;6.49;61.13;102201.09;5034685;28;20025;-53
2022/11/20 10:32:48;;;;;;;10.57;6.10;;;;;;;6.45;61.10;102194.41;5034322;28;20029;-52
2022/11/20 10:35:36;;;;;;;9.80;6.32;;;;;;;6.46;61.13;102199.59;5034067;28;20023;-53
2022/11/20 10:38:25;;;;;;;9.80;6.40;;;;;;;6.20;62.06;102199.38;5034205;28;20473;-52
2022/11/20 10:41:24;;;;;;;12.98;7.03;;;;;;;6.26;61.71;102204.13;5034075;28;20040;-52
2022/11/20 10:43:47;;;;;;;14.80;7.05;;;;;;;6.29;61.55;102198.53;5034022;28;20025;-51
2022/11/20 10:46:17;;;;;;;10.82;7.07;;;;;;;6.54;60.81;102190.88;5033877;28;20096;-51
2022/11/20 10:48:45;;;;;;;9.93;6.75;;;;;;;6.55;60.82;102193.41;5033895;28;20482;-52
2022/11/20 10:51:11;;;;;;;10.80;6.00;;;;;;;6.53;61.18;102190.03;5015824;28;20132;-50
2022/11/20 10:53:52;;;;;;;9.73;6.07;;;;;;;6.23;62.19;102198.28;5014152;28;20506;-52
2022/11/20 10:56:39;;;;;;;9.00;6.25;;;;;;;6.24;62.81;102200.78;5014144;28;20026;-49
2022/11/20 10:59:27;;;;;;;11.98;7.10;;;;;;;6.16;63.34;102199.81;5029870;28;20119;-52
2022/11/20 11:01:53;;;;;;;12.50;7.65;;;;;;;5.96;63.85;102207.84;5016068;28;20049;-50
2022/11/20 11:04:41;;;;;;;10.70;6.70;;;;;;;5.80;64.25;102203.06;5033788;28;20025;-49
2022/11/20 11:07:36;;;;;;;13.05;7.05;;;;;;;5.97;63.58;102196.22;5033659;28;20053;-51
2022/11/20 11:10:18;;;;;;;11.10;6.50;;;;;;;6.01;63.16;102197.63;5033644;28;20070;-52
2022/11/20 11:12:48;;;;;;;15.13;7.20;;;;;;;6.00;63.23;102187.97;5033565;28;20033;-50
2022/11/20 11:15:38;;;;;;;10.98;6.85;;;;;;;6.01;62.73;102176.34;5033524;28;20414;-52
2022/11/20 11:18:05;;;;;;;13.27;7.03;;;;;;;6.20;62.22;102186.09;5019309;28;20046;-51
2022/11/20 11:20:32;;;;;;;10.07;6.43;;;;;;;6.20;62.57;102191.41;5033333;28;20135;-51
2022/11/20 11:22:59;;;;;;;11.80;6.82;;;;;;;6.16;62.71;102189.16;5033291;28;20112;-48
2022/11/20 11:25:33;;;;;;;11.80;7.00;;;;;;;6.07;63.09;102196.22;5015398;28;20030;-52
2022/11/20 11:28:05;;;;;;;8.50;6.25;;;;;;;6.01;63.06;102202.94;5032256;28;20029;-51
2022/11/20 11:30:43;;;;;;;12.18;7.07;;;;;;;6.12;62.96;102195.78;5033125;28;20110;-49
2022/11/20 11:33:20;;;;;;;10.55;7.30;;;;;;;6.10;63.31;102195.91;5032955;28;20088;-51
2022/11/20 11:35:52;;;;;;;11.65;6.85;;;;;;;6.07;63.35;102199.69;5033213;28;20057;-51
2022/11/20 11:38:44;;;;;;;10.75;6.88;;;;;;;6.05;63.61;102201.66;5033369;28;20062;-50
2022/11/20 11:41:20;;;;;;;11.93;6.90;;;;;;;6.04;63.22;102201.78;5033051;28;20041;-51